createdAt,value
2019-01-26T00:00:44.434Z,7.10
2019-01-26T00:01:44.421Z,8.00
2019-01-26T00:02:44.410Z,6.80
2019-01-26T00:03:44.425Z,7.00
2019-01-26T00:04:44.393Z,6.40
2019-01-26T00:05:44.379Z,7.30
2019-01-26T00:06:44.366Z,5.90
2019-01-26T00:07:44.354Z,6.40
2019-01-26T00:08:44.368Z,6.90
2019-01-26T00:09:44.333Z,8.40
2019-01-26T00:10:44.322Z,6.40
2019-01-26T00:11:44.311Z,7.00
2019-01-26T00:12:44.298Z,6.50
2019-01-26T00:13:44.311Z,6.30
2019-01-26T00:14:44.276Z,7.30
2019-01-26T00:15:44.324Z,7.80
2019-01-26T00:16:44.255Z,5.80
2019-01-26T00:17:44.245Z,6.20
2019-01-26T00:18:44.260Z,6.50
2019-01-26T00:19:44.222Z,5.60
2019-01-26T00:20:44.211Z,6.70
2019-01-26T00:21:44.200Z,6.90
2019-01-26T00:22:44.188Z,6.80
2019-01-26T00:23:44.201Z,6.50
2019-01-26T00:24:44.166Z,6.10
2019-01-26T00:25:44.157Z,6.40
2019-01-26T00:26:44.145Z,6.80
2019-01-26T00:27:44.134Z,6.10
2019-01-26T00:28:44.147Z,6.20
2019-01-26T00:29:44.114Z,7.20
2019-01-26T00:30:44.100Z,6.70
2019-01-26T00:31:44.089Z,5.90
2019-01-26T00:32:44.079Z,5.80
2019-01-26T00:33:44.070Z,6.00
2019-01-26T00:34:44.084Z,5.70
2019-01-26T00:35:44.049Z,6.00
2019-01-26T00:36:44.035Z,5.20
2019-01-26T00:37:44.027Z,5.70
2019-01-26T00:38:44.042Z,5.30
2019-01-26T00:39:45.105Z,5.60
2019-01-26T00:40:43.989Z,6.50
2019-01-26T00:41:43.979Z,4.90
2019-01-26T00:42:43.969Z,5.80
2019-01-26T00:43:43.960Z,5.90
2019-01-26T00:44:43.971Z,6.30
2019-01-26T00:45:43.934Z,5.70
2019-01-26T00:46:43.924Z,5.70
2019-01-26T00:47:43.912Z,4.20
2019-01-26T00:48:43.903Z,4.50
2019-01-26T00:49:43.916Z,5.30
2019-01-26T00:50:43.881Z,4.70
2019-01-26T00:51:43.870Z,5.00
2019-01-26T00:52:43.859Z,5.00
2019-01-26T00:53:43.851Z,4.70
2019-01-26T00:54:43.861Z,5.40
2019-01-26T00:55:43.827Z,4.40
2019-01-26T00:56:43.818Z,4.30
2019-01-26T00:57:43.805Z,5.90
2019-01-26T00:58:43.794Z,4.40
2019-01-26T00:59:43.808Z,4.60
2019-01-26T01:00:43.773Z,3.90
2019-01-26T01:01:43.763Z,4.80
2019-01-26T01:02:43.752Z,3.90
2019-01-26T01:03:43.742Z,4.90
2019-01-26T01:04:43.754Z,4.80
2019-01-26T01:05:43.718Z,3.70
2019-01-26T01:06:43.708Z,3.10
2019-01-26T01:07:43.772Z,4.00
2019-01-26T01:08:43.685Z,3.20
2019-01-26T01:09:43.764Z,3.00
2019-01-26T01:10:43.663Z,4.40
2019-01-26T01:11:43.660Z,3.20
2019-01-26T01:12:43.643Z,3.60
2019-01-26T01:13:43.631Z,3.20
2019-01-26T01:14:43.648Z,3.30
2019-01-26T01:15:43.610Z,6.40
2019-01-26T01:16:43.600Z,2.80
2019-01-26T01:17:43.634Z,2.40
2019-01-26T01:18:43.578Z,2.30
2019-01-26T01:19:43.591Z,2.30
2019-01-26T01:20:43.603Z,3.10
2019-01-26T01:21:43.586Z,2.20
2019-01-26T01:22:43.538Z,3.20
2019-01-26T01:23:43.602Z,5.60
2019-01-26T01:24:43.536Z,2.10
2019-01-26T01:25:43.503Z,2.20
2019-01-26T01:26:43.490Z,3.40
2019-01-26T01:27:43.485Z,2.40
2019-01-26T01:28:43.469Z,2.20
2019-01-26T01:29:43.485Z,2.20
2019-01-26T01:30:43.452Z,2.30
2019-01-26T01:31:43.437Z,2.30
2019-01-26T01:32:43.424Z,2.90
2019-01-26T01:33:43.419Z,2.10
2019-01-26T01:34:43.459Z,2.80
2019-01-26T01:35:43.391Z,3.00
2019-01-26T01:36:43.380Z,2.30
2019-01-26T01:37:43.370Z,2.50
2019-01-26T01:38:43.359Z,4.30
2019-01-26T01:39:43.402Z,2.30
2019-01-26T01:40:43.334Z,2.20
2019-01-26T01:41:43.323Z,2.00
2019-01-26T01:42:43.314Z,2.50
2019-01-26T01:43:43.301Z,2.20
2019-01-26T01:44:43.314Z,2.50
2019-01-26T01:45:43.277Z,2.20
2019-01-26T01:46:43.267Z,2.30
2019-01-26T01:47:43.358Z,3.00
2019-01-26T01:48:43.245Z,2.80
2019-01-26T01:49:43.258Z,2.30
2019-01-26T01:50:43.220Z,3.00
2019-01-26T01:51:43.210Z,2.40
2019-01-26T01:52:43.250Z,2.30
2019-01-26T01:53:43.188Z,2.30
2019-01-26T01:54:43.201Z,3.80
2019-01-26T01:55:43.165Z,2.80
2019-01-26T01:56:43.157Z,2.70
2019-01-26T01:57:43.145Z,4.40
2019-01-26T01:58:43.132Z,4.20
2019-01-26T01:59:43.144Z,1.90
2019-01-26T02:00:43.112Z,2.20
2019-01-26T02:01:43.103Z,3.40
2019-01-26T02:02:43.086Z,3.20
2019-01-26T02:03:43.078Z,3.30
2019-01-26T02:04:43.088Z,2.00
2019-01-26T02:05:43.053Z,2.30
2019-01-26T02:06:43.042Z,4.00
2019-01-26T02:07:43.030Z,2.20
2019-01-26T02:08:43.018Z,4.50
2019-01-26T02:09:43.032Z,3.30
2019-01-26T02:10:42.995Z,2.50
2019-01-26T02:11:42.984Z,2.80
2019-01-26T02:12:42.974Z,2.20
2019-01-26T02:13:42.962Z,3.50
2019-01-26T02:14:42.960Z,2.30
2019-01-26T02:15:42.963Z,2.00
2019-01-26T02:16:42.928Z,2.50
2019-01-26T02:17:42.919Z,4.10
2019-01-26T02:18:42.904Z,3.50
2019-01-26T02:19:42.895Z,1.60
2019-01-26T02:20:42.904Z,2.30
2019-01-26T02:21:42.870Z,2.20
2019-01-26T02:22:42.859Z,2.40
2019-01-26T02:23:42.848Z,3.80
2019-01-26T02:24:42.838Z,2.00
2019-01-26T02:25:42.855Z,3.30
2019-01-26T02:26:42.814Z,2.90
2019-01-26T02:27:42.804Z,2.80
2019-01-26T02:28:42.790Z,1.80
2019-01-26T02:29:42.787Z,1.80
2019-01-26T02:30:42.796Z,3.70
2019-01-26T02:31:42.760Z,3.00
2019-01-26T02:32:42.747Z,2.20
2019-01-26T02:33:42.735Z,3.00
2019-01-26T02:34:42.725Z,2.70
2019-01-26T02:35:42.738Z,2.10
2019-01-26T02:36:42.701Z,2.30
2019-01-26T02:37:42.692Z,6.60
2019-01-26T02:38:42.679Z,2.30
2019-01-26T02:39:42.667Z,2.00
2019-01-26T02:40:42.683Z,2.90
2019-01-26T02:41:42.647Z,1.80
2019-01-26T02:42:42.634Z,2.00
2019-01-26T02:43:42.626Z,1.70
2019-01-26T02:44:42.612Z,2.20
2019-01-26T02:45:42.624Z,1.80
2019-01-26T02:46:42.589Z,1.90
2019-01-26T02:47:42.582Z,2.70
2019-01-26T02:48:42.567Z,2.00
2019-01-26T02:49:42.555Z,1.70
2019-01-26T02:50:42.574Z,1.80
2019-01-26T02:51:42.534Z,2.00
2019-01-26T02:52:42.524Z,2.10
2019-01-26T02:53:42.511Z,1.30
2019-01-26T02:54:42.500Z,1.60
2019-01-26T02:55:42.511Z,2.00
2019-01-26T02:56:42.477Z,1.50
2019-01-26T02:57:42.464Z,1.80
2019-01-26T02:58:42.453Z,3.50
2019-01-26T02:59:42.445Z,1.60
2019-01-26T03:00:42.459Z,1.70
2019-01-26T03:01:42.421Z,2.30
2019-01-26T03:02:42.412Z,1.70
2019-01-26T03:03:42.398Z,1.80
2019-01-26T03:04:42.386Z,2.90
2019-01-26T03:05:42.400Z,1.40
2019-01-26T03:06:42.363Z,1.90
2019-01-26T03:07:42.351Z,2.00
2019-01-26T03:08:42.342Z,2.20
2019-01-26T03:09:42.330Z,1.80
2019-01-26T03:10:42.344Z,1.60
2019-01-26T03:11:42.307Z,2.00
2019-01-26T03:12:42.297Z,1.40
2019-01-26T03:13:42.283Z,3.00
2019-01-26T03:14:42.271Z,2.60
2019-01-26T03:15:42.287Z,1.70
2019-01-26T03:16:42.248Z,1.80
2019-01-26T03:17:42.240Z,2.60
2019-01-26T03:18:42.226Z,2.20
2019-01-26T03:19:42.216Z,1.50
2019-01-26T03:20:42.228Z,1.80
2019-01-26T03:21:42.192Z,2.10
2019-01-26T03:22:42.181Z,1.80
2019-01-26T03:23:42.171Z,1.70
2019-01-26T03:24:42.158Z,2.80
2019-01-26T03:25:42.171Z,1.70
2019-01-26T03:26:42.139Z,2.10
2019-01-26T03:27:42.124Z,1.70
2019-01-26T03:28:42.114Z,2.20
2019-01-26T03:29:42.102Z,1.50
2019-01-26T03:30:42.125Z,1.40
2019-01-26T03:31:42.080Z,1.30
2019-01-26T03:32:42.077Z,1.40
2019-01-26T03:33:42.057Z,1.30
2019-01-26T03:34:42.045Z,1.40
2019-01-26T03:35:42.059Z,1.40
2019-01-26T03:36:42.023Z,2.60
2019-01-26T03:37:42.017Z,1.30
2019-01-26T03:38:42.000Z,1.50
2019-01-26T03:39:41.991Z,1.60
2019-01-26T03:40:42.002Z,2.00
2019-01-26T03:41:41.966Z,1.50
2019-01-26T03:42:41.965Z,1.60
2019-01-26T03:43:41.946Z,1.30
2019-01-26T03:44:41.934Z,1.60
2019-01-26T03:45:41.946Z,2.20
2019-01-26T03:46:41.910Z,2.50
2019-01-26T03:47:41.898Z,2.20
2019-01-26T03:48:41.888Z,2.20
2019-01-26T03:49:41.876Z,2.00
2019-01-26T03:50:41.889Z,1.70
2019-01-26T03:51:41.854Z,2.30
2019-01-26T03:52:41.843Z,2.70
2019-01-26T03:53:41.832Z,2.20
2019-01-26T03:54:41.821Z,3.80
2019-01-26T03:55:41.832Z,2.30
2019-01-26T03:56:41.796Z,2.80
2019-01-26T03:57:41.784Z,2.10
2019-01-26T03:58:41.782Z,3.50
2019-01-26T03:59:41.761Z,2.20
2019-01-26T04:00:41.753Z,3.00
2019-01-26T04:01:41.767Z,2.30
2019-01-26T04:02:41.731Z,2.80
2019-01-26T04:03:41.718Z,4.50
2019-01-26T04:04:41.707Z,2.80
2019-01-26T04:05:41.697Z,2.90
2019-01-26T04:06:41.709Z,2.50
2019-01-26T04:07:41.674Z,4.60
2019-01-26T04:08:41.664Z,3.50
2019-01-26T04:09:41.651Z,3.50
2019-01-26T04:10:41.648Z,3.50
2019-01-26T04:11:41.659Z,3.50
2019-01-26T04:12:41.617Z,3.00
2019-01-26T04:13:41.608Z,3.70
2019-01-26T04:14:41.599Z,2.90
2019-01-26T04:15:41.587Z,4.40
2019-01-26T04:16:41.598Z,4.30
2019-01-26T04:17:41.571Z,4.50
2019-01-26T04:18:41.550Z,3.60
2019-01-26T04:19:41.540Z,4.60
2019-01-26T04:20:41.530Z,4.10
2019-01-26T04:21:41.542Z,4.50
2019-01-26T04:22:41.507Z,3.40
2019-01-26T04:23:41.496Z,3.30
2019-01-26T04:24:41.485Z,3.20
2019-01-26T04:25:41.475Z,3.40
2019-01-26T04:26:41.487Z,3.50
2019-01-26T04:27:41.452Z,3.60
2019-01-26T04:28:41.443Z,3.50
2019-01-26T04:29:41.434Z,3.90
2019-01-26T04:30:41.418Z,3.90
2019-01-26T04:31:41.432Z,5.00
2019-01-26T04:32:41.397Z,4.80
2019-01-26T04:33:41.390Z,4.00
2019-01-26T04:34:41.377Z,3.10
2019-01-26T04:35:41.364Z,3.50
2019-01-26T04:36:41.380Z,3.90
2019-01-26T04:37:41.344Z,2.90
2019-01-26T04:38:41.333Z,3.00
2019-01-26T04:39:41.319Z,3.10
2019-01-26T04:40:41.309Z,4.30
2019-01-26T04:41:41.322Z,3.50
2019-01-26T04:42:41.285Z,3.60
2019-01-26T04:43:41.276Z,4.00
2019-01-26T04:44:41.267Z,3.30
2019-01-26T04:45:41.253Z,3.50
2019-01-26T04:46:41.244Z,4.60
2019-01-26T04:47:41.258Z,3.30
2019-01-26T04:48:41.219Z,3.80
2019-01-26T04:49:41.209Z,3.70
2019-01-26T04:50:42.484Z,4.00
2019-01-26T04:51:41.189Z,4.00
2019-01-26T04:52:41.200Z,3.00
2019-01-26T04:53:41.165Z,4.60
2019-01-26T04:54:41.158Z,4.60
2019-01-26T04:55:41.142Z,4.90
2019-01-26T04:56:41.138Z,4.20
2019-01-26T04:57:41.148Z,3.50
2019-01-26T04:58:41.110Z,4.30
2019-01-26T04:59:41.097Z,3.80
2019-01-26T05:00:41.090Z,3.70
2019-01-26T05:01:41.076Z,3.80
2019-01-26T05:02:41.092Z,3.50
2019-01-26T05:03:41.056Z,5.60
2019-01-26T05:04:41.041Z,5.00
2019-01-26T05:05:41.034Z,4.80
2019-01-26T05:06:41.019Z,5.80
2019-01-26T05:07:41.034Z,6.10
2019-01-26T05:08:40.997Z,6.50
2019-01-26T05:09:40.986Z,6.70
2019-01-26T05:10:40.975Z,5.80
2019-01-26T05:11:40.965Z,6.10
2019-01-26T05:12:40.977Z,7.20
2019-01-26T05:13:40.942Z,6.90
2019-01-26T05:14:40.935Z,7.70
2019-01-26T05:15:40.920Z,7.80
2019-01-26T05:16:40.933Z,7.20
2019-01-26T05:17:40.938Z,7.80
2019-01-26T05:18:40.901Z,8.00
2019-01-26T05:19:40.876Z,9.50
2019-01-26T05:20:40.865Z,8.90
2019-01-26T05:21:40.855Z,9.00
2019-01-26T05:22:40.876Z,10.40
2019-01-26T05:23:40.833Z,9.40
2019-01-26T05:24:40.825Z,9.60
2019-01-26T05:25:40.813Z,9.30
2019-01-26T05:26:40.799Z,11.40
2019-01-26T05:27:40.811Z,11.50
2019-01-26T05:28:40.776Z,10.10
2019-01-26T05:29:40.765Z,11.20
2019-01-26T05:30:40.757Z,11.20
2019-01-26T05:31:40.748Z,9.90
2019-01-26T05:32:40.758Z,11.20
2019-01-26T05:33:40.725Z,10.40
2019-01-26T05:34:40.712Z,12.30
2019-01-26T05:35:40.698Z,13.30
2019-01-26T05:36:40.688Z,12.20
2019-01-26T05:37:40.703Z,11.40
2019-01-26T05:38:40.665Z,12.40
2019-01-26T05:39:40.696Z,14.20
2019-01-26T05:40:40.644Z,12.90
2019-01-26T05:41:40.637Z,12.70
2019-01-26T05:42:40.646Z,12.20
2019-01-26T05:43:40.610Z,11.40
2019-01-26T05:44:40.600Z,10.00
2019-01-26T05:45:40.592Z,13.20
2019-01-26T05:46:40.576Z,12.60
2019-01-26T05:47:48.029Z,12.90
2019-01-26T05:48:41.554Z,12.50
2019-01-26T05:49:40.544Z,13.30
2019-01-26T05:50:40.534Z,13.10
2019-01-26T05:51:40.526Z,10.50
2019-01-26T05:52:40.538Z,11.60
2019-01-26T05:53:40.510Z,11.20
2019-01-26T05:54:40.490Z,13.40
2019-01-26T05:55:40.479Z,12.60
2019-01-26T05:56:40.470Z,14.90
2019-01-26T05:57:40.487Z,12.20
2019-01-26T05:58:40.445Z,13.60
2019-01-26T05:59:40.436Z,13.20
2019-01-26T06:00:40.426Z,13.80
2019-01-26T06:01:40.412Z,13.60
2019-01-26T06:02:40.425Z,13.90
2019-01-26T06:03:40.389Z,12.30
2019-01-26T06:04:40.378Z,13.40
2019-01-26T06:05:40.366Z,13.60
2019-01-26T06:06:40.356Z,13.70
2019-01-26T06:07:40.370Z,13.10
2019-01-26T06:08:40.340Z,13.40
2019-01-26T06:09:40.323Z,13.00
2019-01-26T06:10:40.312Z,14.00
2019-01-26T06:11:40.300Z,13.40
2019-01-26T06:12:40.315Z,13.40
2019-01-26T06:13:40.279Z,13.70
2019-01-26T06:14:40.272Z,14.60
2019-01-26T06:15:40.257Z,13.10
2019-01-26T06:16:40.245Z,13.00
2019-01-26T06:17:40.241Z,13.00
2019-01-26T06:18:40.248Z,13.40
2019-01-26T06:19:40.214Z,14.10
2019-01-26T06:20:40.202Z,12.70
2019-01-26T06:21:40.191Z,13.80
2019-01-26T06:22:40.182Z,13.60
2019-01-26T06:23:40.194Z,12.60
2019-01-26T06:24:40.157Z,13.10
2019-01-26T06:25:40.153Z,13.30
2019-01-26T06:26:40.136Z,12.70
2019-01-26T06:27:40.127Z,13.10
2019-01-26T06:28:40.136Z,16.00
2019-01-26T06:29:40.102Z,12.70
2019-01-26T06:30:40.091Z,15.50
2019-01-26T06:31:40.084Z,11.70
2019-01-26T06:32:40.071Z,11.90
2019-01-26T06:33:40.083Z,11.50
2019-01-26T06:34:40.047Z,12.20
2019-01-26T06:35:40.037Z,13.10
2019-01-26T06:36:40.026Z,14.10
2019-01-26T06:37:40.019Z,14.70
2019-01-26T06:38:40.027Z,15.30
2019-01-26T06:39:39.991Z,11.70
2019-01-26T06:40:39.981Z,13.80
2019-01-26T06:41:39.970Z,14.10
2019-01-26T06:42:39.960Z,11.90
2019-01-26T06:43:39.974Z,12.10
2019-01-26T06:44:39.937Z,14.20
2019-01-26T06:45:39.925Z,13.00
2019-01-26T06:46:39.914Z,13.80
2019-01-26T06:47:39.903Z,12.70
2019-01-26T06:48:39.916Z,12.30
2019-01-26T06:49:39.881Z,13.90
2019-01-26T06:50:39.871Z,12.10
2019-01-26T06:51:39.859Z,12.60
2019-01-26T06:52:39.851Z,10.70
2019-01-26T06:53:39.863Z,13.00
2019-01-26T06:54:39.826Z,13.20
2019-01-26T06:55:39.816Z,13.70
2019-01-26T06:56:39.802Z,11.90
2019-01-26T06:57:39.794Z,10.80
2019-01-26T06:58:39.847Z,12.60
2019-01-26T06:59:39.769Z,12.10
2019-01-26T07:00:39.762Z,10.80
2019-01-26T07:01:39.749Z,11.50
2019-01-26T07:02:39.738Z,12.70
2019-01-26T07:03:39.753Z,12.20
2019-01-26T07:04:39.714Z,11.20
2019-01-26T07:05:39.712Z,10.90
2019-01-26T07:06:39.693Z,11.80
2019-01-26T07:07:39.685Z,11.90
2019-01-26T07:08:39.694Z,11.60
2019-01-26T07:09:39.660Z,13.00
2019-01-26T07:10:39.648Z,10.20
2019-01-26T07:11:39.638Z,10.10
2019-01-26T07:12:39.626Z,10.50
2019-01-26T07:13:39.640Z,12.00
2019-01-26T07:14:39.603Z,10.20
2019-01-26T07:15:39.592Z,11.30
2019-01-26T07:16:39.605Z,11.50
2019-01-26T07:17:39.569Z,10.70
2019-01-26T07:18:39.586Z,10.40
2019-01-26T07:19:39.549Z,11.30
2019-01-26T07:20:39.543Z,11.60
2019-01-26T07:21:39.527Z,13.30
2019-01-26T07:22:39.514Z,9.50
2019-01-26T07:23:39.528Z,9.80
2019-01-26T07:24:39.493Z,10.30
2019-01-26T07:25:39.481Z,8.90
2019-01-26T07:26:39.474Z,9.80
2019-01-26T07:27:39.459Z,8.60
2019-01-26T07:28:39.474Z,8.90
2019-01-26T07:29:39.438Z,9.00
2019-01-26T07:30:39.427Z,7.70
2019-01-26T07:31:39.414Z,7.00
2019-01-26T07:32:39.402Z,7.80
2019-01-26T07:33:39.417Z,6.60
2019-01-26T07:34:39.380Z,7.00
2019-01-26T07:35:39.372Z,7.10
2019-01-26T07:36:39.359Z,7.70
2019-01-26T07:37:39.347Z,6.90
2019-01-26T07:38:39.361Z,6.30
2019-01-26T07:39:39.325Z,6.10
2019-01-26T07:40:39.314Z,6.50
2019-01-26T07:41:39.303Z,6.60
2019-01-26T07:42:39.296Z,8.00
2019-01-26T07:43:39.304Z,6.80
2019-01-26T07:44:39.270Z,6.10
2019-01-26T07:45:39.259Z,6.40
2019-01-26T07:46:39.246Z,6.20
2019-01-26T07:47:39.238Z,6.20
2019-01-26T07:48:39.249Z,5.70
2019-01-26T07:49:39.213Z,5.90
2019-01-26T07:50:39.205Z,6.30
2019-01-26T07:51:39.200Z,6.00
2019-01-26T07:52:39.182Z,5.50
2019-01-26T07:53:39.197Z,5.80
2019-01-26T07:54:39.158Z,6.10
2019-01-26T07:55:39.146Z,5.30
2019-01-26T07:56:39.137Z,5.00
2019-01-26T07:57:39.125Z,5.00
2019-01-26T07:58:39.135Z,5.50
2019-01-26T07:59:39.127Z,4.80
2019-01-26T08:00:39.098Z,5.20
2019-01-26T08:01:39.081Z,4.50
2019-01-26T08:02:39.104Z,5.50
2019-01-26T08:03:39.059Z,5.10
2019-01-26T08:04:39.124Z,5.50
2019-01-26T08:05:39.039Z,4.40
2019-01-26T08:06:39.025Z,5.30
2019-01-26T08:07:39.014Z,6.20
2019-01-26T08:08:39.015Z,5.60
2019-01-26T08:09:39.018Z,6.20
2019-01-26T08:10:38.995Z,6.30
2019-01-26T08:11:38.972Z,5.60
2019-01-26T08:12:38.958Z,6.20
2019-01-26T08:13:38.949Z,4.90
2019-01-26T08:14:38.964Z,5.30
2019-01-26T08:15:38.924Z,4.90
2019-01-26T08:16:38.915Z,4.70
2019-01-26T08:17:38.902Z,5.80
2019-01-26T08:18:38.894Z,5.60
2019-01-26T08:19:40.077Z,4.70
2019-01-26T08:20:38.870Z,3.70
2019-01-26T08:21:38.861Z,4.40
2019-01-26T08:22:38.849Z,4.70
2019-01-26T08:23:38.836Z,5.10
2019-01-26T08:24:38.851Z,4.10
2019-01-26T08:25:38.814Z,4.50
2019-01-26T08:26:38.803Z,4.30
2019-01-26T08:27:38.791Z,4.10
2019-01-26T08:28:38.781Z,4.40
2019-01-26T08:29:38.793Z,4.90
2019-01-26T08:30:38.758Z,4.40
2019-01-26T08:31:38.749Z,4.30
2019-01-26T08:32:38.736Z,4.10
2019-01-26T08:33:38.728Z,4.10
2019-01-26T08:34:38.744Z,3.60
2019-01-26T08:35:38.701Z,5.60
2019-01-26T08:36:38.690Z,4.10
2019-01-26T08:37:38.682Z,4.50
2019-01-26T08:38:38.669Z,3.80
2019-01-26T08:39:38.685Z,4.00
2019-01-26T08:40:38.647Z,3.90
2019-01-26T08:41:38.636Z,5.30
2019-01-26T08:42:38.623Z,4.10
2019-01-26T08:43:38.614Z,5.60
2019-01-26T08:44:38.627Z,3.90
2019-01-26T08:45:38.591Z,4.10
2019-01-26T08:46:38.579Z,5.50
2019-01-26T08:47:38.569Z,4.40
2019-01-26T08:48:38.557Z,5.50
2019-01-26T08:49:38.571Z,4.50
2019-01-26T08:50:38.536Z,5.70
2019-01-26T08:51:38.525Z,5.00
2019-01-26T08:52:38.513Z,4.70
2019-01-26T08:53:38.503Z,4.70
2019-01-26T08:54:38.516Z,5.20
2019-01-26T08:55:38.484Z,5.80
2019-01-26T08:56:38.469Z,4.90
2019-01-26T08:57:38.459Z,5.50
2019-01-26T08:58:38.450Z,6.00
2019-01-26T08:59:38.465Z,4.70
2019-01-26T09:00:38.424Z,4.50
2019-01-26T09:01:38.416Z,4.80
2019-01-26T09:02:38.402Z,4.80
2019-01-26T09:03:38.391Z,4.60
2019-01-26T09:04:38.405Z,4.90
2019-01-26T09:05:38.370Z,4.80
2019-01-26T09:06:38.359Z,4.80
2019-01-26T09:07:38.354Z,5.10
2019-01-26T09:08:38.337Z,4.90
2019-01-26T09:09:38.350Z,4.10
2019-01-26T09:10:38.317Z,5.00
2019-01-26T09:11:38.313Z,3.90
2019-01-26T09:12:38.294Z,3.90
2019-01-26T09:13:38.281Z,4.20
2019-01-26T09:14:38.295Z,4.30
2019-01-26T09:15:38.258Z,4.60
2019-01-26T09:16:38.249Z,3.70
2019-01-26T09:17:38.236Z,5.00
2019-01-26T09:18:38.883Z,4.30
2019-01-26T09:19:38.327Z,4.20
2019-01-26T09:20:38.202Z,4.10
2019-01-26T09:21:38.193Z,4.10
2019-01-26T09:22:38.181Z,3.60
2019-01-26T09:23:38.170Z,4.60
2019-01-26T09:24:38.183Z,3.40
2019-01-26T09:25:38.152Z,5.20
2019-01-26T09:26:38.136Z,6.30
2019-01-26T09:27:38.126Z,5.00
2019-01-26T09:28:38.116Z,3.90
2019-01-26T09:29:38.128Z,4.30
2019-01-26T09:30:38.092Z,4.40
2019-01-26T09:31:38.082Z,3.90
2019-01-26T09:32:38.071Z,4.10
2019-01-26T09:33:38.061Z,3.70
2019-01-26T09:34:38.074Z,4.20
2019-01-26T09:35:38.037Z,3.90
2019-01-26T09:36:38.026Z,3.40
2019-01-26T09:37:38.014Z,2.90
2019-01-26T09:38:38.003Z,2.90
2019-01-26T09:39:37.993Z,3.40
2019-01-26T09:40:38.006Z,3.50
2019-01-26T09:41:37.970Z,3.80
2019-01-26T09:42:37.959Z,2.50
2019-01-26T09:43:37.949Z,2.90
2019-01-26T09:44:37.962Z,2.50
2019-01-26T09:45:37.925Z,2.60
2019-01-26T09:46:37.917Z,2.90
2019-01-26T09:47:37.903Z,2.60
2019-01-26T09:48:37.894Z,3.30
2019-01-26T09:49:37.885Z,2.50
2019-01-26T09:50:37.897Z,3.10
2019-01-26T09:51:37.861Z,4.20
2019-01-26T09:52:37.850Z,2.60
2019-01-26T09:53:37.837Z,2.60
2019-01-26T09:54:37.832Z,2.30
2019-01-26T09:55:37.840Z,2.30
2019-01-26T09:56:37.804Z,3.00
2019-01-26T09:57:37.792Z,3.40
2019-01-26T09:58:37.783Z,2.30
2019-01-26T09:59:37.772Z,3.10
2019-01-26T10:00:37.785Z,2.20
2019-01-26T10:01:37.752Z,2.00
2019-01-26T10:02:37.737Z,3.00
2019-01-26T10:03:37.727Z,2.60
2019-01-26T10:04:37.717Z,2.70
2019-01-26T10:05:37.729Z,1.70
2019-01-26T10:06:37.692Z,2.30
2019-01-26T10:07:37.682Z,2.30
2019-01-26T10:08:37.671Z,2.00
2019-01-26T10:09:37.659Z,2.10
2019-01-26T10:10:37.673Z,2.60
2019-01-26T10:11:37.638Z,1.90
2019-01-26T10:12:37.626Z,2.30
2019-01-26T10:13:37.616Z,1.90
2019-01-26T10:14:37.605Z,2.20
2019-01-26T10:15:37.617Z,1.90
2019-01-26T10:16:37.583Z,1.90
2019-01-26T10:17:37.574Z,1.90
2019-01-26T10:18:37.559Z,1.70
2019-01-26T10:19:37.548Z,2.10
2019-01-26T10:20:37.564Z,1.80
2019-01-26T10:21:37.525Z,2.50
2019-01-26T10:22:37.514Z,2.20
2019-01-26T10:23:37.505Z,2.30
2019-01-26T10:24:37.492Z,2.20
2019-01-26T10:25:37.505Z,1.80
2019-01-26T10:26:37.470Z,2.00
2019-01-26T10:27:37.459Z,1.60
2019-01-26T10:28:37.448Z,2.10
2019-01-26T10:29:37.438Z,2.30
2019-01-26T10:30:37.452Z,1.90
2019-01-26T10:31:37.416Z,3.40
2019-01-26T10:32:37.405Z,2.30
2019-01-26T10:33:37.393Z,2.00
2019-01-26T10:34:37.384Z,1.90
2019-01-26T10:35:37.394Z,2.00
2019-01-26T10:36:37.359Z,2.60
2019-01-26T10:37:37.349Z,2.30
2019-01-26T10:38:37.338Z,2.30
2019-01-26T10:39:37.325Z,2.50
2019-01-26T10:40:37.339Z,2.40
2019-01-26T10:41:37.303Z,3.40
2019-01-26T10:42:37.292Z,2.20
2019-01-26T10:43:37.281Z,2.70
2019-01-26T10:44:37.271Z,2.90
2019-01-26T10:45:37.295Z,2.50
2019-01-26T10:46:37.253Z,3.10
2019-01-26T10:47:37.236Z,2.70
2019-01-26T10:48:37.225Z,2.40
2019-01-26T10:49:37.215Z,2.80
2019-01-26T10:50:37.230Z,3.90
2019-01-26T10:51:37.192Z,2.90
2019-01-26T10:52:37.181Z,2.50
2019-01-26T10:53:37.171Z,2.70
2019-01-26T10:54:37.158Z,2.50
2019-01-26T10:55:37.172Z,2.80
2019-01-26T10:56:37.135Z,2.40
2019-01-26T10:57:37.126Z,2.30
2019-01-26T10:58:37.114Z,2.30
2019-01-26T10:59:37.102Z,4.00
2019-01-26T11:00:37.115Z,3.00
2019-01-26T11:01:37.080Z,3.00
2019-01-26T11:02:37.075Z,2.50
2019-01-26T11:03:37.058Z,3.30
2019-01-26T11:04:37.049Z,2.80
2019-01-26T11:05:37.058Z,2.40
2019-01-26T11:06:37.026Z,3.10
2019-01-26T11:07:37.013Z,3.60
2019-01-26T11:08:37.002Z,2.50
2019-01-26T11:09:36.992Z,2.90
2019-01-26T11:10:37.004Z,3.30
2019-01-26T11:11:36.971Z,3.40
2019-01-26T11:12:36.958Z,3.20
2019-01-26T11:13:36.948Z,2.60
2019-01-26T11:14:36.935Z,2.90
2019-01-26T11:15:36.948Z,3.20
2019-01-26T11:16:36.914Z,3.00
2019-01-26T11:17:36.904Z,3.10
2019-01-26T11:18:36.891Z,3.80
2019-01-26T11:19:36.879Z,3.00
2019-01-26T11:20:36.870Z,3.70
2019-01-26T11:21:36.882Z,3.70
2019-01-26T11:22:36.847Z,3.70
2019-01-26T11:23:36.835Z,3.20
2019-01-26T11:24:36.825Z,3.30
2019-01-26T11:25:36.844Z,2.90
2019-01-26T11:26:36.802Z,3.50
2019-01-26T11:27:36.790Z,3.30
2019-01-26T11:28:36.779Z,2.90
2019-01-26T11:29:36.770Z,3.30
2019-01-26T11:30:36.759Z,3.50
2019-01-26T11:31:36.773Z,3.20
2019-01-26T11:32:36.735Z,3.60
2019-01-26T11:33:36.724Z,3.20
2019-01-26T11:34:36.712Z,3.70
2019-01-26T11:35:36.702Z,3.60
2019-01-26T11:36:36.714Z,4.00
2019-01-26T11:37:36.679Z,4.40
2019-01-26T11:38:36.668Z,3.30
2019-01-26T11:39:36.657Z,3.90
2019-01-26T11:40:36.648Z,4.20
2019-01-26T11:41:36.659Z,3.40
2019-01-26T11:42:36.624Z,3.90
2019-01-26T11:43:36.612Z,3.60
2019-01-26T11:44:36.601Z,4.30
2019-01-26T11:45:36.590Z,3.60
2019-01-26T11:46:36.601Z,5.60
2019-01-26T11:47:36.566Z,4.10
2019-01-26T11:48:36.559Z,4.30
2019-01-26T11:49:36.545Z,5.10
2019-01-26T11:50:36.534Z,4.50
2019-01-26T11:51:36.547Z,3.80
2019-01-26T11:52:36.512Z,4.00
2019-01-26T11:53:36.501Z,3.90
2019-01-26T11:54:36.489Z,4.10
2019-01-26T11:55:36.477Z,4.70
2019-01-26T11:56:36.495Z,4.60
2019-01-26T11:57:36.460Z,4.70
2019-01-26T11:58:36.447Z,4.40
2019-01-26T11:59:36.433Z,5.50
2019-01-26T12:00:36.423Z,4.50
2019-01-26T12:01:36.438Z,4.70
2019-01-26T12:02:36.404Z,5.10
2019-01-26T12:03:36.393Z,3.70
2019-01-26T12:04:36.377Z,4.90
2019-01-26T12:05:36.367Z,3.50
2019-01-26T12:06:36.381Z,4.50
2019-01-26T12:07:36.345Z,3.90
2019-01-26T12:08:36.333Z,5.20
2019-01-26T12:09:36.332Z,4.40
2019-01-26T12:10:36.313Z,4.70
2019-01-26T12:11:36.325Z,4.70
2019-01-26T12:12:36.288Z,4.30
2019-01-26T12:13:36.278Z,4.10
2019-01-26T12:14:36.266Z,5.40
2019-01-26T12:15:36.255Z,5.10
2019-01-26T12:16:36.270Z,4.60
2019-01-26T12:17:36.627Z,5.80
2019-01-26T12:18:36.221Z,5.00
2019-01-26T12:19:36.211Z,4.40
2019-01-26T12:20:36.200Z,4.80
2019-01-26T12:21:36.214Z,4.10
2019-01-26T12:22:36.184Z,4.60
2019-01-26T12:23:36.166Z,5.20
2019-01-26T12:24:36.156Z,4.00
2019-01-26T12:25:36.145Z,5.20
2019-01-26T12:26:36.158Z,5.20
2019-01-26T12:27:36.121Z,5.60
2019-01-26T12:28:36.111Z,4.00
2019-01-26T12:29:36.100Z,5.70
2019-01-26T12:30:36.089Z,4.50
2019-01-26T12:31:36.100Z,3.80
2019-01-26T12:32:36.065Z,4.60
2019-01-26T12:33:36.054Z,4.90
2019-01-26T12:34:36.044Z,4.40
2019-01-26T12:35:36.035Z,4.70
2019-01-26T12:36:36.046Z,4.70
2019-01-26T12:37:36.010Z,4.80
2019-01-26T12:38:35.998Z,4.70
2019-01-26T12:39:35.992Z,4.80
2019-01-26T12:40:35.977Z,4.80
2019-01-26T12:41:35.991Z,4.50
2019-01-26T12:42:35.955Z,4.10
2019-01-26T12:43:35.943Z,4.30
2019-01-26T12:44:35.932Z,4.00
2019-01-26T12:45:35.922Z,3.80
2019-01-26T12:46:35.934Z,4.60
2019-01-26T12:47:35.902Z,4.30
2019-01-26T12:48:35.889Z,5.90
2019-01-26T12:49:35.876Z,4.60
2019-01-26T12:50:35.865Z,3.50
2019-01-26T12:51:35.879Z,3.60
2019-01-26T12:52:35.844Z,3.20
2019-01-26T12:53:35.833Z,3.60
2019-01-26T12:54:35.820Z,3.40
2019-01-26T12:55:35.810Z,3.40
2019-01-26T12:56:35.824Z,3.70
2019-01-26T12:57:35.789Z,3.50
2019-01-26T12:58:35.775Z,3.40
2019-01-26T12:59:35.766Z,3.80
2019-01-26T13:00:35.752Z,2.90
2019-01-26T13:01:35.767Z,3.50
2019-01-26T13:02:35.731Z,2.80
2019-01-26T13:03:35.720Z,3.90
2019-01-26T13:04:35.708Z,3.30
2019-01-26T13:05:35.700Z,4.00
2019-01-26T13:06:35.688Z,3.90
2019-01-26T13:07:35.699Z,2.70
2019-01-26T13:08:35.668Z,4.30
2019-01-26T13:09:35.655Z,3.70
2019-01-26T13:10:35.644Z,3.00
2019-01-26T13:11:35.632Z,3.50
2019-01-26T13:12:35.644Z,3.50
2019-01-26T13:13:35.612Z,2.50
2019-01-26T13:14:35.596Z,3.00